Time;durP1;ratioP1;P1;durP2;ratioP2;P2;SDS_P1;SDS_P2;PMS_P1;PMS_P2;Temp;Humidity;BMP_temperature;BMP_pressure;BME280_temperature;BME280_humidity;BME280_pressure;Samples;Min_cycle;Max_cycle;Signal;HPM_P1;HPM_P2
2022/01/14 00:02:08;;;;;;;8.18;2.37;;;;;;;6.90;79.53;101405.05;1648011;85;21568;-83
2022/01/14 00:04:36;;;;;;;5.30;2.15;;;;;;;6.91;79.54;101405.56;1675687;85;21670;-83
2022/01/14 00:07:06;;;;;;;7.37;2.75;;;;;;;6.92;79.56;101404.72;1675874;85;21821;-83
2022/01/14 00:09:37;;;;;;;4.08;2.10;;;;;;;6.92;79.50;101394.25;1675663;85;21090;-82
2022/01/14 00:12:10;;;;;;;5.95;2.50;;;;;;;6.92;79.51;101389.02;1675168;85;21627;-82
2022/01/14 00:14:39;;;;;;;4.72;1.67;;;;;;;6.93;79.48;101398.68;1647563;85;21654;-82
2022/01/14 00:17:12;;;;;;;4.03;1.70;;;;;;;6.92;79.45;101394.25;1676005;85;21085;-82
2022/01/14 00:19:42;;;;;;;4.70;1.72;;;;;;;6.92;79.47;101387.29;1675099;85;21120;-82
2022/01/14 00:22:14;;;;;;;8.08;1.87;;;;;;;6.92;79.45;101375.51;1670584;85;21128;-82
2022/01/14 00:33:05;;;;;;;5.95;1.85;;;;;;;6.95;79.41;101357.77;1675408;85;21756;-82
2022/01/14 00:35:25;;;;;;;5.67;1.60;;;;;;;6.98;79.44;101364.45;1674226;84;21149;-82
2022/01/14 00:37:52;;;;;;;4.95;1.70;;;;;;;6.97;79.40;101356.13;1675535;85;21572;-82
2022/01/14 00:40:19;;;;;;;6.70;2.05;;;;;;;6.99;79.41;101333.13;1675821;85;21104;-82
2022/01/14 00:42:47;;;;;;;5.65;1.70;;;;;;;6.99;79.42;101337.47;1675913;85;21574;-80
2022/01/14 00:45:14;;;;;;;3.08;1.40;;;;;;;6.99;79.42;101324.38;1676107;85;22392;-80
2022/01/14 00:47:40;;;;;;;7.25;2.17;;;;;;;6.99;79.43;101316.53;1676134;85;21117;-81
2022/01/14 00:50:15;;;;;;;6.67;2.00;;;;;;;6.99;79.46;101315.22;1647845;85;21602;-81
2022/01/14 00:52:43;;;;;;;5.15;2.08;;;;;;;6.99;79.44;101309.98;1675741;85;21109;-81
2022/01/14 00:55:18;;;;;;;6.47;1.75;;;;;;;6.99;79.46;101292.97;1676301;85;21065;-81
2022/01/14 01:00:23;;;;;;;6.05;2.00;;;;;;;6.98;79.46;101290.77;1675817;85;21626;-81
2022/01/14 01:02:50;;;;;;;9.30;2.80;;;;;;;6.91;79.45;101333.17;1675998;85;21627;-80
2022/01/14 01:05:19;;;;;;;7.08;1.75;;;;;;;6.98;79.47;101302.55;1657196;85;21617;-81
2022/01/14 01:07:55;;;;;;;3.55;1.98;;;;;;;6.98;79.48;101312.10;1676089;85;21108;-80
2022/01/14 01:10:17;;;;;;;4.62;1.80;;;;;;;6.98;79.53;101289.85;1674506;84;21862;-81
2022/01/14 01:15:16;;;;;;;3.90;1.60;;;;;;;6.94;79.52;101262.64;1676083;85;21121;-80
2022/01/14 01:17:42;;;;;;;4.25;1.60;;;;;;;6.94;79.51;101261.75;1675984;85;21093;-78
2022/01/14 01:20:17;;;;;;;6.40;1.80;;;;;;;6.93;79.51;101259.55;1676247;85;21611;-82
2022/01/14 01:22:49;;;;;;;4.20;1.55;;;;;;;6.93;79.57;101263.90;1648191;85;21143;-81
2022/01/14 01:25:20;;;;;;;3.45;1.40;;;;;;;6.92;79.61;101283.02;1676075;85;21069;-80
2022/01/14 01:27:49;;;;;;;4.12;1.40;;;;;;;6.92;79.65;101271.25;1675187;85;21080;-80
2022/01/14 01:33:03;;;;;;;6.20;1.85;;;;;;;6.93;79.67;101242.54;1671202;85;21223;-80
2022/01/14 01:35:32;;;;;;;3.65;1.50;;;;;;;6.92;79.67;101257.74;1675410;85;22709;-80
2022/01/14 01:37:59;;;;;;;4.37;1.37;;;;;;;6.91;79.70;101248.53;1676041;85;21089;-81
2022/01/14 01:40:27;;;;;;;3.72;1.45;;;;;;;6.92;79.76;101254.23;1676090;85;21109;-80
2022/01/14 01:43:03;;;;;;;4.50;1.52;;;;;;;6.91;79.79;101255.97;1676071;85;21129;-79
2022/01/14 01:45:27;;;;;;;;;;;;;;;6.92;79.85;101256.44;1678420;85;21093;-79
2022/01/14 01:47:54;;;;;;;5.95;1.45;;;;;;;6.92;79.86;101235.50;1676121;85;21768;-81
2022/01/14 01:50:27;;;;;;;2.50;1.22;;;;;;;6.93;79.89;101233.80;1676133;85;21109;-80
2022/01/14 01:52:55;;;;;;;4.35;1.37;;;;;;;6.94;79.92;101263.94;1675594;85;21635;-79
2022/01/14 01:55:22;;;;;;;5.15;1.30;;;;;;;6.95;79.93;101233.45;1675847;85;21157;-80
2022/01/14 01:57:51;;;;;;;2.33;1.40;;;;;;;6.94;79.89;101234.27;1626145;85;21093;-80
2022/01/14 02:00:22;;;;;;;3.77;1.25;;;;;;;6.91;79.89;101213.20;1676092;85;21791;-80
2022/01/14 02:02:54;;;;;;;6.17;1.02;;;;;;;6.90;79.94;101228.41;1674688;85;21129;-80
2022/01/14 02:05:22;;;;;;;3.05;0.90;;;;;;;6.89;79.96;101201.73;1675964;85;21168;-81
2022/01/14 02:07:49;;;;;;;3.70;1.15;;;;;;;6.87;80.05;101203.00;1675683;85;21662;-80
2022/01/14 02:10:16;;;;;;;4.70;1.32;;;;;;;6.88;80.12;101208.70;1675981;85;21729;-80
2022/01/14 02:12:49;;;;;;;6.20;1.90;;;;;;;6.88;80.14;101197.34;1675841;85;21820;-80
2022/01/14 02:15:26;;;;;;;4.10;1.20;;;;;;;6.87;80.16;101192.53;1675622;84;21384;-80
2022/01/14 02:23:15;;;;;;;2.12;1.00;;;;;;;6.78;80.21;101183.83;1675785;85;21094;-80
2022/01/14 02:25:42;;;;;;;3.45;1.12;;;;;;;6.77;80.26;101187.67;1648601;85;21874;-80
2022/01/14 02:28:13;;;;;;;3.45;1.00;;;;;;;6.77;80.30;101162.40;1675680;85;21097;-80
2022/01/14 02:30:43;;;;;;;3.02;1.37;;;;;;;6.76;80.33;101132.27;1675813;85;21104;-80
2022/01/14 02:33:09;;;;;;;4.45;1.30;;;;;;;6.77;80.41;101145.39;1674565;85;22135;-82
2022/01/14 02:35:37;;;;;;;2.65;1.00;;;;;;;6.77;80.45;101132.31;1662864;86;21094;-82
2022/01/14 02:38:06;;;;;;;9.13;1.30;;;;;;;6.78;80.47;101134.12;1662576;86;21070;-81
2022/01/14 02:40:35;;;;;;;3.30;1.10;;;;;;;6.80;80.52;101096.26;1662487;86;21126;-81
2022/01/14 02:43:02;;;;;;;2.50;0.85;;;;;;;6.80;80.51;101100.18;1663035;86;21038;-79
2022/01/14 02:45:32;;;;;;;7.75;0.98;;;;;;;6.81;80.56;101113.34;1662857;86;21216;-80
2022/01/14 02:47:58;;;;;;;1.90;1.05;;;;;;;6.84;80.55;101102.53;1663013;86;21697;-80
2022/01/14 02:50:26;;;;;;;1.92;0.90;;;;;;;6.83;80.54;101112.50;1662951;86;21805;-79
2022/01/14 02:55:23;;;;;;;3.47;1.02;;;;;;;6.81;80.51;101116.34;1662923;86;21105;-80
2022/01/14 02:57:53;;;;;;;1.87;1.00;;;;;;;6.78;80.52;101084.83;1662987;86;21126;-81
2022/01/14 03:00:29;;;;;;;1.62;0.70;;;;;;;6.72;80.46;101089.37;1663019;86;21129;-79
2022/01/14 03:02:59;;;;;;;4.70;1.10;;;;;;;6.68;80.53;101094.37;1663067;86;22493;-80
2022/01/14 03:05:29;;;;;;;1.32;0.72;;;;;;;6.63;80.55;101083.70;1663312;86;21082;-80
2022/01/14 03:07:56;;;;;;;2.77;0.80;;;;;;;6.59;80.66;101105.33;1663311;86;21794;-80
2022/01/14 03:10:26;;;;;;;4.37;1.22;;;;;;;6.56;80.70;101089.05;1663328;86;21139;-80
2022/01/14 03:12:51;;;;;;;1.45;0.80;;;;;;;6.55;80.72;101086.36;1642380;86;21121;-81
2022/01/14 03:15:19;;;;;;;3.85;1.00;;;;;;;6.53;80.84;101056.24;1663372;86;22010;-81
2022/01/14 03:17:46;;;;;;;2.15;0.90;;;;;;;6.50;80.86;101070.47;1662928;86;21165;-83
2022/01/14 03:20:46;;;;;;;1.15;0.60;;;;;;;6.51;81.01;101073.97;1641343;86;21626;-82
2022/01/14 03:22:52;;;;;;;3.08;0.82;;;;;;;6.51;81.00;101073.97;1658572;86;21055;-82
2022/01/14 03:27:58;;;;;;;1.75;0.70;;;;;;;6.50;81.17;101093.12;1663095;86;21801;-82
2022/01/14 03:30:25;;;;;;;3.15;0.82;;;;;;;6.54;81.25;101088.09;1663020;86;21165;-82
2022/01/14 03:32:52;;;;;;;3.02;1.02;;;;;;;6.56;81.23;101086.44;1662940;86;21085;-81
2022/01/14 03:35:18;;;;;;;2.55;0.80;;;;;;;6.59;81.24;101081.36;1662836;86;21090;-81
2022/01/14 03:37:50;;;;;;;1.60;0.85;;;;;;;6.62;81.30;101071.44;1663272;86;21118;-82
2022/01/14 03:40:17;;;;;;;0.88;0.80;;;;;;;6.67;81.26;101091.29;1663529;84;21743;-81
2022/01/14 03:42:45;;;;;;;1.45;0.75;;;;;;;6.67;81.25;101083.02;1663327;86;21059;-82
2022/01/14 03:45:12;;;;;;;5.22;0.85;;;;;;;6.69;81.25;101076.14;1663300;86;21090;-83
2022/01/14 03:47:43;;;;;;;1.65;0.80;;;;;;;6.74;81.30;101082.48;1641411;86;21110;-83
2022/01/14 03:50:10;;;;;;;1.92;0.70;;;;;;;6.78;81.32;101071.75;1662703;86;21122;-83
2022/01/14 03:52:39;;;;;;;3.17;0.98;;;;;;;6.82;81.44;101051.43;1662929;86;21770;-83
2022/01/14 03:55:15;;;;;;;3.25;1.20;;;;;;;6.84;81.35;101053.70;1641304;86;21595;-81
2022/01/14 03:57:42;;;;;;;3.08;0.98;;;;;;;6.84;81.37;101055.43;1662964;86;21109;-81
2022/01/14 04:00:10;;;;;;;7.20;1.70;;;;;;;6.85;81.46;101054.20;1662695;86;21105;-82
2022/01/14 04:02:37;;;;;;;2.47;1.15;;;;;;;6.90;81.60;101042.61;1662960;86;21181;-82
2022/01/14 04:05:06;;;;;;;3.35;1.02;;;;;;;6.97;81.66;101075.66;1663283;86;39863;-82
2022/01/14 04:07:34;;;;;;;2.17;1.10;;;;;;;7.04;81.67;101087.31;1662770;86;21134;-81
2022/01/14 04:10:02;;;;;;;4.45;1.17;;;;;;;7.10;81.66;101060.09;1663087;86;21019;-81
2022/01/14 04:12:57;;;;;;;3.90;1.10;;;;;;;7.14;81.63;101071.17;1662615;86;21655;-83
2022/01/14 04:15:38;;;;;;;4.60;1.42;;;;;;;7.18;81.58;101050.84;1662433;86;21062;-83
2022/01/14 04:18:16;;;;;;;6.28;1.20;;;;;;;7.22;81.50;101068.00;1655756;86;23097;-81
2022/01/14 04:20:49;;;;;;;6.40;1.60;;;;;;;7.20;81.42;101036.09;1602051;88;21115;-80
2022/01/14 04:23:16;;;;;;;3.83;1.20;;;;;;;7.17;81.37;101045.53;1636977;86;21149;-80
2022/01/14 04:25:42;;;;;;;3.10;1.00;;;;;;;7.14;81.39;101012.27;1655674;85;21229;-80
2022/01/14 04:28:09;;;;;;;3.12;1.10;;;;;;;7.13;81.44;101014.81;1602165;89;21133;-80
2022/01/14 04:30:36;;;;;;;7.62;1.70;;;;;;;7.15;81.54;101019.31;1648942;86;22586;-80
2022/01/14 04:33:08;;;;;;;5.08;1.40;;;;;;;7.22;81.60;101023.49;1579968;89;21737;-81
2022/01/14 04:35:39;;;;;;;4.50;1.62;;;;;;;7.27;81.61;101028.52;1655028;86;21630;-81
2022/01/14 04:38:07;;;;;;;5.10;1.40;;;;;;;7.32;81.58;101028.28;1617517;88;21153;-82
2022/01/14 04:40:38;;;;;;;5.25;1.35;;;;;;;7.34;81.49;101016.17;1656223;85;21117;-81
2022/01/14 04:43:03;;;;;;;6.53;1.50;;;;;;;7.36;81.39;100998.80;1617851;88;21796;-81
2022/01/14 04:48:00;;;;;;;6.35;2.58;;;;;;;7.39;81.33;101001.53;1656184;86;21146;-81
2022/01/14 04:50:25;;;;;;;6.05;2.90;;;;;;;7.41;81.31;101010.34;1655390;86;21182;-81
2022/01/14 04:52:54;;;;;;;8.05;4.42;;;;;;;7.43;81.26;100998.63;1656283;86;21098;-80
2022/01/14 04:55:22;;;;;;;7.40;3.62;;;;;;;7.45;81.32;101007.44;1656608;85;21873;-82
2022/01/14 04:57:49;;;;;;;5.72;1.75;;;;;;;7.46;81.24;100970.84;1655614;86;21101;-80
2022/01/14 05:00:21;;;;;;;8.00;1.72;;;;;;;7.46;81.15;100974.77;1648495;85;21121;-82
2022/01/14 05:02:54;;;;;;;4.22;1.30;;;;;;;7.47;81.15;101010.62;1650069;85;21145;-81
2022/01/14 05:05:20;;;;;;;6.17;1.70;;;;;;;7.47;81.09;100997.52;1677146;85;21074;-81
2022/01/14 05:07:50;;;;;;;7.20;1.95;;;;;;;7.47;81.11;100982.20;1677516;85;21396;-86
2022/01/14 05:12:59;;;;;;;5.72;1.70;;;;;;;7.48;81.04;100984.00;1644298;87;21635;-85
2022/01/14 05:15:26;;;;;;;5.00;1.42;;;;;;;7.49;81.05;100981.45;1590482;88;22160;-86
2022/01/14 05:17:52;;;;;;;7.58;1.55;;;;;;;7.49;81.01;100976.60;1616079;87;21594;-88
2022/01/14 05:20:24;;;;;;;5.85;1.65;;;;;;;7.50;81.01;100970.55;1644454;87;21805;-85
2022/01/14 05:22:51;;;;;;;5.05;1.67;;;;;;;7.50;80.99;100987.15;1644315;87;21090;-85
2022/01/14 05:25:18;;;;;;;7.45;1.98;;;;;;;7.51;80.99;100984.14;1644407;87;21109;-85
2022/01/14 05:27:45;;;;;;;6.95;1.67;;;;;;;7.54;81.05;100968.53;1644466;86;21101;-84
2022/01/14 05:30:12;;;;;;;8.70;2.55;;;;;;;7.57;81.07;100985.27;1644628;86;21145;-84
2022/01/14 05:32:48;;;;;;;7.15;1.82;;;;;;;7.58;81.00;100983.14;1616333;87;21776;-87
2022/01/14 05:35:16;;;;;;;6.78;2.27;;;;;;;7.59;81.02;100986.64;1634052;87;21548;-78
2022/01/14 05:37:43;;;;;;;5.25;1.60;;;;;;;7.61;81.05;100995.88;1616051;88;21671;-83
2022/01/14 05:40:11;;;;;;;9.10;1.80;;;;;;;7.60;80.98;100994.96;1625362;88;21126;-81
2022/01/14 05:42:38;;;;;;;9.10;1.95;;;;;;;7.60;81.00;100976.63;1625874;88;21725;-81
2022/01/14 05:45:06;;;;;;;11.68;2.40;;;;;;;7.59;80.98;100973.13;1625980;88;21807;-82
2022/01/14 05:47:39;;;;;;;7.12;1.82;;;;;;;7.61;81.01;100985.41;1625944;86;21656;-83
2022/01/14 05:50:11;;;;;;;15.40;2.15;;;;;;;7.57;80.95;100960.38;1598016;88;21186;-83
2022/01/14 05:52:39;;;;;;;8.48;1.98;;;;;;;7.56;80.96;100943.28;1598616;88;21241;-83
2022/01/14 05:55:07;;;;;;;5.97;2.15;;;;;;;7.56;81.01;100931.50;1626121;86;21114;-83
2022/01/14 05:57:38;;;;;;;5.47;1.55;;;;;;;7.55;80.98;100938.47;1625856;86;21771;-84
2022/01/14 06:00:13;;;;;;;6.78;2.02;;;;;;;7.56;80.93;100960.31;1625601;86;21120;-81
2022/01/14 06:02:40;;;;;;;7.08;1.65;;;;;;;7.56;80.88;100959.00;1625135;86;21114;-80
2022/01/14 06:05:09;;;;;;;4.58;1.80;;;;;;;7.55;80.82;100956.81;1625627;88;21107;-81
2022/01/14 06:07:39;;;;;;;5.12;1.60;;;;;;;7.53;80.76;100951.92;1625414;86;21209;-81
2022/01/14 06:10:07;;;;;;;5.87;1.75;;;;;;;7.51;80.75;100969.73;1625749;88;21747;-82
2022/01/14 06:12:33;;;;;;;9.53;2.33;;;;;;;7.53;80.82;100937.95;1628438;86;21489;-82
2022/01/14 06:15:04;;;;;;;6.95;1.80;;;;;;;7.54;80.76;100948.88;1628808;88;21110;-82
2022/01/14 06:17:32;;;;;;;6.40;2.08;;;;;;;7.54;80.72;100948.45;1628643;87;21183;-82
2022/01/14 06:19:59;;;;;;;7.15;1.70;;;;;;;7.53;80.65;100954.55;1628745;86;21162;-82
2022/01/14 06:22:29;;;;;;;4.83;2.00;;;;;;;7.51;80.63;100950.09;1629089;86;21823;-82
2022/01/14 06:24:56;;;;;;;8.15;2.02;;;;;;;7.51;80.66;100973.66;1629215;86;21616;-82
2022/01/14 06:27:23;;;;;;;5.85;2.02;;;;;;;7.51;80.67;100964.07;1628866;88;21091;-82
2022/01/14 06:29:50;;;;;;;7.03;2.02;;;;;;;7.52;80.80;100964.95;1629192;87;21627;-82
2022/01/14 06:32:18;;;;;;;4.85;1.47;;;;;;;7.55;81.05;100965.09;1629096;87;21215;-82
2022/01/14 06:34:45;;;;;;;6.75;1.98;;;;;;;7.56;80.79;100927.17;1627417;88;21816;-82
2022/01/14 06:37:11;;;;;;;9.48;2.02;;;;;;;7.58;80.77;100956.03;1644144;87;21102;-82
2022/01/14 06:39:41;;;;;;;8.48;2.22;;;;;;;7.58;80.68;100954.33;1628355;86;21606;-82
2022/01/14 06:42:07;;;;;;;9.78;2.45;;;;;;;7.59;80.68;100948.23;1627669;86;21180;-82
2022/01/14 06:44:34;;;;;;;8.50;2.52;;;;;;;7.59;80.65;100953.90;1628165;87;21750;-82
2022/01/14 06:47:01;;;;;;;10.65;2.20;;;;;;;7.58;80.62;100977.91;1628166;87;22465;-82
2022/01/14 06:49:28;;;;;;;10.45;2.35;;;;;;;7.56;80.67;100962.54;1628243;86;21031;-82
2022/01/14 06:51:57;;;;;;;7.53;2.10;;;;;;;7.57;80.75;101002.30;1628045;88;21125;-82
2022/01/14 06:54:23;;;;;;;10.30;2.80;;;;;;;7.57;80.77;100968.66;1627726;87;21142;-82
2022/01/14 06:56:50;;;;;;;7.10;2.42;;;;;;;7.56;80.79;100964.24;1628050;86;21129;-82
2022/01/14 06:59:16;;;;;;;12.60;3.55;;;;;;;7.55;80.85;100969.02;1628007;88;21794;-82
2022/01/14 07:01:43;;;;;;;10.82;2.75;;;;;;;7.54;80.91;100969.41;1627809;86;21097;-82
2022/01/14 07:04:11;;;;;;;9.15;2.70;;;;;;;7.53;80.97;100972.88;1628190;88;21794;-82
2022/01/14 07:06:38;;;;;;;9.33;2.70;;;;;;;7.53;81.05;100997.77;1628129;87;21098;-82
2022/01/14 07:09:04;;;;;;;13.95;2.90;;;;;;;7.52;81.10;100995.96;1628318;86;21638;-82
2022/01/14 07:11:36;;;;;;;10.60;2.90;;;;;;;7.50;81.20;100997.62;1604547;87;21362;-82
2022/01/14 07:14:01;;;;;;;7.80;2.98;;;;;;;7.49;81.30;101007.64;1627786;87;21102;-82
2022/01/14 07:16:28;;;;;;;12.28;2.70;;;;;;;7.48;81.35;100995.36;1628269;87;21170;-82
2022/01/14 07:18:55;;;;;;;11.75;2.80;;;;;;;7.50;81.41;101011.15;1628265;87;21175;-82
2022/01/14 07:21:21;;;;;;;12.30;3.05;;;;;;;7.53;81.45;101011.28;1628310;86;21183;-82
2022/01/14 07:23:48;;;;;;;13.28;3.55;;;;;;;7.57;81.50;100980.03;1628353;87;21731;-82
2022/01/14 07:26:15;;;;;;;8.33;2.47;;;;;;;7.63;81.49;100981.12;1628459;86;21126;-82
2022/01/14 07:28:42;;;;;;;9.50;2.67;;;;;;;7.67;81.41;100965.56;1628140;86;21671;-82
2022/01/14 07:31:09;;;;;;;7.83;2.20;;;;;;;7.72;81.34;100956.17;1628183;87;21266;-81
2022/01/14 07:33:36;;;;;;;8.45;2.70;;;;;;;7.79;81.23;100942.91;1628158;87;21121;-81
2022/01/14 07:36:03;;;;;;;12.25;3.50;;;;;;;7.85;81.17;100968.47;1633263;87;21767;-82
2022/01/14 07:38:30;;;;;;;11.08;3.47;;;;;;;7.90;81.03;100952.09;1637224;87;21109;-82
2022/01/14 07:40:57;;;;;;;14.33;3.17;;;;;;;7.95;80.93;100958.80;1637582;87;21683;-81
2022/01/14 07:43:24;;;;;;;13.40;4.03;;;;;;;8.03;80.76;100956.05;1637452;87;21089;-82
2022/01/14 07:45:50;;;;;;;8.70;2.87;;;;;;;8.10;80.57;100955.45;1637630;86;21124;-82
2022/01/14 07:48:17;;;;;;;12.40;2.98;;;;;;;8.20;80.26;100955.81;1637661;87;21932;-82
2022/01/14 07:50:44;;;;;;;15.43;3.47;;;;;;;8.27;80.04;100958.72;1637609;87;21145;-82
2022/01/14 07:53:10;;;;;;;14.38;2.87;;;;;;;8.35;79.88;100948.12;1637651;87;21211;-82
2022/01/14 07:55:37;;;;;;;11.85;2.70;;;;;;;8.41;79.55;100954.01;1607764;87;21101;-82
2022/01/14 07:58:05;;;;;;;13.20;3.58;;;;;;;8.49;79.15;100982.75;1637218;86;21135;-82
2022/01/14 08:00:34;;;;;;;10.35;3.15;;;;;;;8.56;79.06;100966.83;1637724;87;21763;-82
2022/01/14 08:03:01;;;;;;;13.22;3.37;;;;;;;8.63;78.86;100981.94;1637500;87;21714;-82
2022/01/14 08:05:27;;;;;;;7.80;2.90;;;;;;;8.67;78.63;100994.36;1637392;87;21079;-82
2022/01/14 08:07:57;;;;;;;9.80;3.10;;;;;;;8.71;78.40;100973.94;1637543;87;21577;-82
2022/01/14 08:10:23;;;;;;;13.03;3.05;;;;;;;8.74;78.20;100993.71;1637450;86;21090;-83
2022/01/14 08:12:49;;;;;;;11.50;3.35;;;;;;;8.78;77.78;100995.15;1637521;86;21776;-81
2022/01/14 08:15:16;;;;;;;9.33;3.02;;;;;;;8.81;77.79;101003.14;1637632;87;21293;-82
2022/01/14 08:17:43;;;;;;;11.45;2.65;;;;;;;8.83;77.47;100983.09;1637507;87;21098;-82
2022/01/14 08:20:10;;;;;;;9.28;2.80;;;;;;;8.83;77.27;100980.04;1637598;87;21177;-83
2022/01/14 08:22:40;;;;;;;11.95;3.05;;;;;;;8.86;77.19;100994.99;1637420;87;21769;-83
2022/01/14 08:25:07;;;;;;;8.83;3.17;;;;;;;8.88;77.04;101003.42;1637508;86;22539;-83
2022/01/14 08:27:34;;;;;;;8.93;3.30;;;;;;;8.90;76.92;100993.86;1637432;87;21577;-82
2022/01/14 08:30:00;;;;;;;12.50;3.60;;;;;;;8.91;76.74;100998.69;1637560;87;21646;-83
2022/01/14 08:32:27;;;;;;;12.88;3.75;;;;;;;8.93;76.73;100993.98;1637521;87;21185;-83
2022/01/14 08:34:54;;;;;;;12.45;3.27;;;;;;;8.98;76.57;101002.00;1637506;87;21164;-82
2022/01/14 08:37:20;;;;;;;15.05;3.30;;;;;;;8.97;76.28;100975.69;1628353;86;21715;-83
2022/01/14 08:39:47;;;;;;;13.55;3.30;;;;;;;8.89;76.12;100984.61;1628004;87;21356;-83
2022/01/14 08:42:14;;;;;;;12.33;2.45;;;;;;;8.81;76.11;101001.41;1628106;87;21129;-83
2022/01/14 08:44:41;;;;;;;11.78;2.98;;;;;;;8.82;76.27;100993.10;1627926;87;21557;-82
2022/01/14 08:47:09;;;;;;;8.83;2.62;;;;;;;8.79;76.07;100995.64;1628264;86;21118;-82
2022/01/14 08:49:38;;;;;;;10.55;2.72;;;;;;;8.80;76.20;101005.28;1628030;86;21783;-82
2022/01/14 08:52:05;;;;;;;10.70;2.65;;;;;;;8.83;75.83;100985.72;1627998;87;21168;-82
2022/01/14 08:54:32;;;;;;;11.93;3.33;;;;;;;8.82;75.54;101006.23;1627887;88;21121;-82
2022/01/14 08:56:58;;;;;;;8.75;2.70;;;;;;;8.83;75.55;100989.23;1628030;87;21149;-82
2022/01/14 08:59:25;;;;;;;9.25;3.00;;;;;;;8.83;75.46;100977.84;1627966;87;21141;-83
2022/01/14 09:01:52;;;;;;;15.70;3.33;;;;;;;8.80;75.40;100993.47;1628050;87;21771;-83
2022/01/14 09:04:19;;;;;;;16.42;3.92;;;;;;;8.82;75.50;101001.89;1628017;87;21675;-83
2022/01/14 09:06:45;;;;;;;11.33;3.50;;;;;;;8.90;75.38;100995.60;1628009;87;21131;-83
2022/01/14 09:09:12;;;;;;;13.80;3.00;;;;;;;8.90;75.19;101009.61;1628060;86;21739;-83
2022/01/14 09:11:39;;;;;;;10.03;3.12;;;;;;;8.93;74.75;100999.23;1628092;87;21601;-82
2022/01/14 09:14:05;;;;;;;15.05;3.08;;;;;;;9.04;74.83;101018.40;1627974;87;22585;-82
2022/01/14 09:16:32;;;;;;;9.18;3.00;;;;;;;9.12;74.60;101006.02;1628158;86;21106;-81
2022/01/14 09:18:59;;;;;;;9.15;3.05;;;;;;;9.20;74.71;100999.72;1628225;87;22227;-83
2022/01/14 09:21:25;;;;;;;12.70;3.35;;;;;;;9.26;74.51;101026.19;1628290;86;21165;-82
2022/01/14 09:23:57;;;;;;;12.30;2.80;;;;;;;9.32;74.31;101010.63;1628196;87;21185;-82
2022/01/14 09:26:21;;;;;;;13.90;3.50;;;;;;;9.35;73.63;100992.78;1605896;87;22479;-82
2022/01/14 09:28:47;;;;;;;10.90;3.20;;;;;;;9.37;73.77;100996.78;1628111;87;21098;-83
2022/01/14 09:31:14;;;;;;;18.50;3.35;;;;;;;9.43;73.68;100978.16;1628251;87;21105;-83
2022/01/14 09:33:41;;;;;;;12.58;2.83;;;;;;;9.48;73.42;100999.34;1606022;87;21229;-83
2022/01/14 09:36:08;;;;;;;10.50;2.87;;;;;;;9.48;72.88;101004.17;1654290;86;21750;-82
2022/01/14 09:38:35;;;;;;;10.50;3.20;;;;;;;9.44;72.62;100997.04;1666321;86;21882;-83
2022/01/14 09:41:01;;;;;;;9.70;2.72;;;;;;;9.46;72.69;100998.38;1666098;86;21157;-83
2022/01/14 09:43:30;;;;;;;13.72;2.90;;;;;;;9.42;72.39;101014.48;1670769;85;21364;-83
2022/01/14 09:45:57;;;;;;;11.60;3.47;;;;;;;9.38;72.14;101000.75;1670436;85;21635;-83
2022/01/14 09:48:23;;;;;;;13.22;4.12;;;;;;;9.38;72.40;101006.44;1670816;85;21117;-83
2022/01/14 09:50:51;;;;;;;15.35;3.30;;;;;;;9.37;72.07;101015.17;1670722;85;21751;-83
2022/01/14 09:53:17;;;;;;;12.63;4.10;;;;;;;9.31;72.03;101031.62;1670797;85;21090;-83
2022/01/14 09:55:44;;;;;;;10.30;2.95;;;;;;;9.24;71.81;101022.62;1670860;85;21089;-83
2022/01/14 09:58:11;;;;;;;12.47;3.20;;;;;;;9.21;71.88;101011.99;1670908;85;21528;-83
2022/01/14 10:00:37;;;;;;;13.90;3.47;;;;;;;9.22;71.84;101014.23;1671046;85;21082;-83
2022/01/14 10:03:25;;;;;;;13.93;3.30;;;;;;;9.19;71.73;101058.75;1666199;85;23024;-83
2022/01/14 10:05:58;;;;;;;11.38;2.65;;;;;;;9.17;71.76;101051.24;1666061;85;21159;-82
2022/01/14 10:08:27;;;;;;;7.37;2.83;;;;;;;9.12;71.47;101057.23;1666261;86;21630;-83
2022/01/14 10:10:59;;;;;;;12.00;3.05;;;;;;;9.11;71.46;101036.16;1666159;86;21152;-83
2022/01/14 10:13:29;;;;;;;14.85;3.22;;;;;;;9.17;71.86;101021.04;1665494;86;21583;-83
2022/01/14 10:16:05;;;;;;;13.53;3.08;;;;;;;9.32;71.88;101039.95;1666205;86;22597;-83
2022/01/14 10:18:33;;;;;;;11.53;3.00;;;;;;;9.39;71.57;101035.39;1666117;86;21094;-83
2022/01/14 10:21:01;;;;;;;12.33;3.10;;;;;;;9.36;71.03;101061.97;1666373;86;21158;-83
2022/01/14 10:23:45;;;;;;;10.13;3.02;;;;;;;9.27;71.02;101066.47;1641930;85;21166;-83
2022/01/14 10:26:12;;;;;;;10.32;2.98;;;;;;;9.22;71.08;101051.00;1666372;85;21062;-83
2022/01/14 10:28:40;;;;;;;13.48;3.58;;;;;;;9.20;70.93;101063.19;1670841;85;21769;-83
2022/01/14 10:31:07;;;;;;;12.73;2.98;;;;;;;9.16;70.74;101063.48;1670723;85;21113;-83
2022/01/14 10:33:33;;;;;;;10.45;2.77;;;;;;;9.17;71.01;101098.52;1670658;85;21578;-83
2022/01/14 10:36:00;;;;;;;10.98;3.00;;;;;;;9.09;70.36;101095.19;1670652;85;21058;-83
2022/01/14 10:38:29;;;;;;;8.88;2.77;;;;;;;8.99;70.13;101090.45;1672811;85;21743;-83
2022/01/14 10:40:57;;;;;;;12.60;2.83;;;;;;;8.90;70.47;101084.43;1643190;85;22793;-83
2022/01/14 10:43:33;;;;;;;13.62;3.15;;;;;;;8.81;70.48;101093.27;1673009;85;21130;-83
2022/01/14 10:46:00;;;;;;;15.15;3.02;;;;;;;8.75;70.58;101071.63;1672930;85;21523;-83
2022/01/14 10:48:32;;;;;;;14.93;3.15;;;;;;;8.67;70.34;101087.52;1644150;85;21066;-83
2022/01/14 10:51:10;;;;;;;10.80;3.10;;;;;;;8.61;70.41;101100.80;1672920;85;21121;-84
2022/01/14 10:53:46;;;;;;;9.45;2.33;;;;;;;8.52;70.48;101107.50;1672763;84;22679;-83
2022/01/14 10:56:14;;;;;;;17.73;3.25;;;;;;;8.47;70.59;101106.84;1673015;85;21650;-83
2022/01/14 10:58:50;;;;;;;14.15;2.47;;;;;;;8.45;70.70;101087.09;1672983;84;21666;-82
2022/01/14 11:01:22;;;;;;;10.88;3.40;;;;;;;8.46;70.74;101144.39;1673039;84;21081;-83
2022/01/14 11:03:59;;;;;;;11.55;2.92;;;;;;;8.45;70.60;101098.02;1673177;85;21140;-83
2022/01/14 11:06:31;;;;;;;9.35;2.87;;;;;;;8.41;70.71;101104.84;1666935;84;21786;-83
2022/01/14 11:09:03;;;;;;;11.90;3.22;;;;;;;8.38;70.45;101121.33;1672864;84;21120;-83
2022/01/14 11:11:33;;;;;;;13.78;3.52;;;;;;;8.35;70.52;101119.91;1672894;85;21120;-82
2022/01/14 11:14:00;;;;;;;11.93;3.25;;;;;;;8.31;70.38;101124.95;1672996;84;21646;-82
2022/01/14 11:16:27;;;;;;;10.68;2.80;;;;;;;8.28;70.43;101127.48;1673086;84;21101;-82
2022/01/14 11:18:56;;;;;;;13.03;3.42;;;;;;;8.28;70.49;101119.19;1673151;85;22663;-82
2022/01/14 11:24:09;;;;;;;10.53;2.90;;;;;;;8.32;70.26;101122.41;1672958;85;21137;-82
2022/01/14 11:26:37;;;;;;;13.70;3.20;;;;;;;8.37;69.82;101132.67;1644783;85;21124;-82
2022/01/14 11:29:12;;;;;;;13.32;2.77;;;;;;;8.38;69.83;101139.69;1673196;85;21106;-82
2022/01/14 11:31:40;;;;;;;13.72;2.92;;;;;;;8.33;68.78;101132.08;1673209;85;21782;-82
2022/01/14 11:34:12;;;;;;;8.08;2.72;;;;;;;8.29;69.33;101133.19;1672831;85;21157;-82
2022/01/14 11:36:56;;;;;;;17.27;3.97;;;;;;;8.27;69.46;101140.98;1668658;84;21136;-83
2022/01/14 11:39:25;;;;;;;11.90;2.70;;;;;;;8.25;69.42;101165.37;1672915;85;21360;-82
2022/01/14 11:41:58;;;;;;;12.85;3.17;;;;;;;8.20;69.40;101144.19;1672893;84;21101;-83
2022/01/14 11:47:39;;;;;;;12.00;2.40;;;;;;;8.10;69.37;101173.07;1673034;84;21269;-82
2022/01/14 11:50:06;;;;;;;11.00;3.17;;;;;;;8.08;69.36;101154.19;1673081;85;21089;-82
2022/01/14 11:52:42;;;;;;;9.98;2.65;;;;;;;8.05;69.20;101158.90;1673092;85;21077;-82
2022/01/14 11:55:34;;;;;;;14.80;2.92;;;;;;;8.02;69.12;101152.20;1672915;85;21189;-82
2022/01/14 11:58:03;;;;;;;12.70;3.37;;;;;;;8.02;69.07;101159.19;1673033;84;21749;-82
2022/01/14 12:00:40;;;;;;;15.10;2.77;;;;;;;8.01;68.96;101164.81;1673112;85;21107;-82
2022/01/14 12:03:15;;;;;;;12.58;2.98;;;;;;;7.99;68.88;101175.66;1672877;85;21289;-82
2022/01/14 12:05:53;;;;;;;14.75;3.05;;;;;;;7.98;68.86;101188.30;1673052;85;21210;-82
2022/01/14 12:08:24;;;;;;;8.78;2.90;;;;;;;7.95;68.49;101192.09;1672944;84;21109;-82
2022/01/14 12:11:00;;;;;;;11.60;2.80;;;;;;;7.91;68.02;101246.11;1643601;85;21784;-81
2022/01/14 12:13:54;;;;;;;16.52;3.58;;;;;;;7.86;68.14;101229.28;1672811;85;21567;-82
2022/01/14 12:19:05;;;;;;;10.85;2.42;;;;;;;8.07;68.31;101223.17;1672938;84;20398;-81
2022/01/14 12:21:53;;;;;;;12.47;2.80;;;;;;;8.21;68.29;101219.42;1672763;85;21092;-81